sensor_id;sensor_type;location;lat;lon;timestamp;pressure;altitude;pressure_sealevel;temperature;humidity
78685;BME280;68002;52.310;6.990;2023-03-14T00:00:34;98510.13;;;11.59;76.27
78685;BME280;68002;52.310;6.990;2023-03-14T00:03:00;98519.16;;;11.58;76.55
78685;BME280;68002;52.310;6.990;2023-03-14T00:05:25;98515.47;;;11.59;76.15
78685;BME280;68002;52.310;6.990;2023-03-14T00:07:50;98517.53;;;11.57;76.19
78685;BME280;68002;52.310;6.990;2023-03-14T00:10:16;98527.19;;;11.51;76.42
78685;BME280;68002;52.310;6.990;2023-03-14T00:12:41;98515.22;;;11.47;76.44
78685;BME280;68002;52.310;6.990;2023-03-14T00:15:07;98519.38;;;11.50;75.87
78685;BME280;68002;52.310;6.990;2023-03-14T00:17:34;98506.41;;;11.53;75.85
78685;BME280;68002;52.310;6.990;2023-03-14T00:20:00;98505.34;;;11.48;76.15
78685;BME280;68002;52.310;6.990;2023-03-14T00:22:26;98512.56;;;11.47;76.16
78685;BME280;68002;52.310;6.990;2023-03-14T00:24:52;98491.94;;;11.41;76.46
78685;BME280;68002;52.310;6.990;2023-03-14T00:27:17;98491.13;;;11.41;76.18
78685;BME280;68002;52.310;6.990;2023-03-14T00:29:42;98482.84;;;11.36;76.26
78685;BME280;68002;52.310;6.990;2023-03-14T00:32:08;98491.94;;;11.41;76.30
78685;BME280;68002;52.310;6.990;2023-03-14T00:34:33;98492.34;;;11.38;76.32
78685;BME280;68002;52.310;6.990;2023-03-14T00:36:58;98466.78;;;11.29;76.51
78685;BME280;68002;52.310;6.990;2023-03-14T00:39:23;98464.97;;;11.43;75.96
78685;BME280;68002;52.310;6.990;2023-03-14T00:41:49;98467.63;;;11.36;76.34
78685;BME280;68002;52.310;6.990;2023-03-14T00:44:14;98460.81;;;11.27;76.64
78685;BME280;68002;52.310;6.990;2023-03-14T00:46:39;98463.09;;;11.30;76.32
78685;BME280;68002;52.310;6.990;2023-03-14T00:49:04;98461.03;;;11.26;76.66
78685;BME280;68002;52.310;6.990;2023-03-14T00:51:30;98449.28;;;11.27;76.12
78685;BME280;68002;52.310;6.990;2023-03-14T00:53:55;98454.44;;;11.28;76.36
78685;BME280;68002;52.310;6.990;2023-03-14T00:56:20;98448.47;;;11.33;76.05
78685;BME280;68002;52.310;6.990;2023-03-14T00:58:45;98441.50;;;11.38;75.36
78685;BME280;68002;52.310;6.990;2023-03-14T01:01:17;98427.06;;;11.39;75.64
78685;BME280;68002;52.310;6.990;2023-03-14T01:03:42;98430.16;;;11.43;74.97
78685;BME280;68002;52.310;6.990;2023-03-14T01:08:33;98448.28;;;11.28;75.41
78685;BME280;68002;52.310;6.990;2023-03-14T01:10:58;98444.97;;;11.26;75.46
78685;BME280;68002;52.310;6.990;2023-03-14T01:13:23;98456.31;;;11.34;75.50
78685;BME280;68002;52.310;6.990;2023-03-14T01:15:48;98448.91;;;11.36;75.19
78685;BME280;68002;52.310;6.990;2023-03-14T01:18:14;98455.72;;;11.39;75.04
78685;BME280;68002;52.310;6.990;2023-03-14T01:20:39;98451.78;;;11.41;74.75
78685;BME280;68002;52.310;6.990;2023-03-14T01:23:04;98441.31;;;11.46;74.59
78685;BME280;68002;52.310;6.990;2023-03-14T01:25:29;98454.91;;;11.51;74.33
78685;BME280;68002;52.310;6.990;2023-03-14T01:27:54;98460.25;;;11.58;74.37
78685;BME280;68002;52.310;6.990;2023-03-14T01:30:20;98444.34;;;11.24;76.48
78685;BME280;68002;52.310;6.990;2023-03-14T01:32:45;98469.56;;;10.95;82.07
78685;BME280;68002;52.310;6.990;2023-03-14T01:35:10;98467.75;;;10.68;82.19
78685;BME280;68002;52.310;6.990;2023-03-14T01:37:35;98465.25;;;10.60;82.03
78685;BME280;68002;52.310;6.990;2023-03-14T01:40:00;98458.16;;;10.46;83.44
78685;BME280;68002;52.310;6.990;2023-03-14T01:42:26;98451.53;;;10.35;83.45
78685;BME280;68002;52.310;6.990;2023-03-14T01:44:54;98456.44;;;10.32;84.28
78685;BME280;68002;52.310;6.990;2023-03-14T01:47:19;98458.09;;;10.33;83.13
78685;BME280;68002;52.310;6.990;2023-03-14T01:49:46;98435.91;;;10.32;83.17
78685;BME280;68002;52.310;6.990;2023-03-14T01:52:16;98457.91;;;10.34;82.85
78685;BME280;68002;52.310;6.990;2023-03-14T01:54:50;98458.03;;;10.26;83.89
78685;BME280;68002;52.310;6.990;2023-03-14T01:57:30;98476.41;;;10.36;82.84
78685;BME280;68002;52.310;6.990;2023-03-14T02:03:07;98458.13;;;10.39;83.30
78685;BME280;68002;52.310;6.990;2023-03-14T02:05:35;98456.25;;;10.33;83.55
78685;BME280;68002;52.310;6.990;2023-03-14T02:08:06;98461.22;;;10.36;83.52
78685;BME280;68002;52.310;6.990;2023-03-14T02:10:35;98443.91;;;10.32;83.50
78685;BME280;68002;52.310;6.990;2023-03-14T02:13:03;98457.06;;;10.34;83.02
78685;BME280;68002;52.310;6.990;2023-03-14T02:15:29;98452.03;;;10.45;81.58
78685;BME280;68002;52.310;6.990;2023-03-14T02:17:56;98448.28;;;10.40;82.40
78685;BME280;68002;52.310;6.990;2023-03-14T02:23:09;98448.63;;;10.30;82.02
78685;BME280;68002;52.310;6.990;2023-03-14T02:25:41;98457.22;;;10.26;81.85
78685;BME280;68002;52.310;6.990;2023-03-14T02:28:09;98463.59;;;10.25;81.47
78685;BME280;68002;52.310;6.990;2023-03-14T02:30:35;98459.00;;;10.19;82.50
78685;BME280;68002;52.310;6.990;2023-03-14T02:33:09;98469.34;;;10.22;82.08
78685;BME280;68002;52.310;6.990;2023-03-14T02:35:55;98463.03;;;10.29;81.23
78685;BME280;68002;52.310;6.990;2023-03-14T02:40:52;98447.00;;;10.36;79.99
78685;BME280;68002;52.310;6.990;2023-03-14T02:43:17;98441.44;;;10.31;79.96
78685;BME280;68002;52.310;6.990;2023-03-14T02:45:47;98454.41;;;10.34;79.41
78685;BME280;68002;52.310;6.990;2023-03-14T02:48:22;98429.56;;;10.40;78.12
78685;BME280;68002;52.310;6.990;2023-03-14T02:50:51;98447.25;;;10.41;78.02
78685;BME280;68002;52.310;6.990;2023-03-14T02:53:20;98463.13;;;10.49;76.11
78685;BME280;68002;52.310;6.990;2023-03-14T02:55:47;98438.84;;;10.44;75.55
78685;BME280;68002;52.310;6.990;2023-03-14T02:58:13;98459.84;;;10.47;75.64
78685;BME280;68002;52.310;6.990;2023-03-14T03:00:38;98463.44;;;10.33;76.64
78685;BME280;68002;52.310;6.990;2023-03-14T03:03:04;98481.13;;;10.34;76.66
78685;BME280;68002;52.310;6.990;2023-03-14T03:05:29;98478.22;;;10.29;75.98
78685;BME280;68002;52.310;6.990;2023-03-14T03:07:54;98474.50;;;10.30;76.09
78685;BME280;68002;52.310;6.990;2023-03-14T03:10:19;98470.34;;;10.21;76.31
78685;BME280;68002;52.310;6.990;2023-03-14T03:12:44;98472.13;;;10.13;76.98
78685;BME280;68002;52.310;6.990;2023-03-14T03:15:10;98481.25;;;9.98;79.24
78685;BME280;68002;52.310;6.990;2023-03-14T03:17:35;98478.19;;;9.80;80.69
78685;BME280;68002;52.310;6.990;2023-03-14T03:20:00;98480.84;;;9.80;80.69
78685;BME280;68002;52.310;6.990;2023-03-14T03:22:25;98477.69;;;9.70;81.56
78685;BME280;68002;52.310;6.990;2023-03-14T03:24:51;98491.16;;;9.62;82.02
78685;BME280;68002;52.310;6.990;2023-03-14T03:27:16;98478.38;;;9.57;83.46
78685;BME280;68002;52.310;6.990;2023-03-14T03:29:41;98479.16;;;9.51;83.75
78685;BME280;68002;52.310;6.990;2023-03-14T03:32:06;98489.03;;;9.36;84.58
78685;BME280;68002;52.310;6.990;2023-03-14T03:34:32;98479.50;;;9.27;84.98
78685;BME280;68002;52.310;6.990;2023-03-14T03:36:57;98473.72;;;9.24;85.73
78685;BME280;68002;52.310;6.990;2023-03-14T03:39:23;98463.97;;;9.16;86.62
78685;BME280;68002;52.310;6.990;2023-03-14T03:41:48;98474.84;;;9.14;86.90
78685;BME280;68002;52.310;6.990;2023-03-14T03:44:13;98480.56;;;9.11;86.72
78685;BME280;68002;52.310;6.990;2023-03-14T03:46:38;98464.09;;;9.08;87.55
78685;BME280;68002;52.310;6.990;2023-03-14T03:49:03;98456.00;;;9.01;87.40
78685;BME280;68002;52.310;6.990;2023-03-14T03:51:29;98457.41;;;8.97;87.52
78685;BME280;68002;52.310;6.990;2023-03-14T03:53:55;98461.72;;;8.98;87.84
78685;BME280;68002;52.310;6.990;2023-03-14T03:56:21;98460.81;;;9.06;86.73
78685;BME280;68002;52.310;6.990;2023-03-14T03:58:46;98461.34;;;9.01;86.90
78685;BME280;68002;52.310;6.990;2023-03-14T04:01:11;98465.03;;;9.00;87.28
78685;BME280;68002;52.310;6.990;2023-03-14T04:03:36;98467.06;;;8.98;87.53
78685;BME280;68002;52.310;6.990;2023-03-14T04:06:07;98461.94;;;8.97;87.20
78685;BME280;68002;52.310;6.990;2023-03-14T04:08:33;98463.69;;;8.90;87.54
78685;BME280;68002;52.310;6.990;2023-03-14T04:10:59;98461.72;;;8.98;87.43
78685;BME280;68002;52.310;6.990;2023-03-14T04:13:26;98450.88;;;9.00;86.73
78685;BME280;68002;52.310;6.990;2023-03-14T04:15:52;98458.22;;;8.98;87.28
78685;BME280;68002;52.310;6.990;2023-03-14T04:18:17;98442.53;;;8.88;87.56
78685;BME280;68002;52.310;6.990;2023-03-14T04:20:42;98451.81;;;8.92;87.28
78685;BME280;68002;52.310;6.990;2023-03-14T04:23:08;98452.19;;;8.89;86.71
78685;BME280;68002;52.310;6.990;2023-03-14T04:25:34;98450.81;;;8.93;86.62
78685;BME280;68002;52.310;6.990;2023-03-14T04:27:59;98446.66;;;8.91;87.15
78685;BME280;68002;52.310;6.990;2023-03-14T04:30:24;98450.34;;;8.90;86.42
78685;BME280;68002;52.310;6.990;2023-03-14T04:32:49;98438.75;;;8.83;87.34
78685;BME280;68002;52.310;6.990;2023-03-14T04:35:15;98428.47;;;8.80;86.95
78685;BME280;68002;52.310;6.990;2023-03-14T04:37:40;98431.59;;;8.83;86.75
78685;BME280;68002;52.310;6.990;2023-03-14T04:40:06;98434.28;;;8.83;86.65
78685;BME280;68002;52.310;6.990;2023-03-14T04:42:32;98432.44;;;8.84;87.30
78685;BME280;68002;52.310;6.990;2023-03-14T04:44:57;98429.97;;;8.82;86.68
78685;BME280;68002;52.310;6.990;2023-03-14T04:47:22;98416.50;;;8.90;87.03
78685;BME280;68002;52.310;6.990;2023-03-14T04:49:48;98428.66;;;8.93;86.32
78685;BME280;68002;52.310;6.990;2023-03-14T04:52:13;98422.66;;;8.91;87.20
78685;BME280;68002;52.310;6.990;2023-03-14T04:54:38;98427.75;;;8.86;86.96
78685;BME280;68002;52.310;6.990;2023-03-14T04:57:03;98432.16;;;8.93;86.86
78685;BME280;68002;52.310;6.990;2023-03-14T04:59:28;98428.00;;;8.91;86.16
78685;BME280;68002;52.310;6.990;2023-03-14T05:01:54;98425.59;;;8.96;86.27
78685;BME280;68002;52.310;6.990;2023-03-14T05:04:19;98423.19;;;9.01;86.59
78685;BME280;68002;52.310;6.990;2023-03-14T05:06:44;98420.91;;;8.98;85.85
78685;BME280;68002;52.310;6.990;2023-03-14T05:09:09;98430.94;;;8.96;86.64
78685;BME280;68002;52.310;6.990;2023-03-14T05:11:34;98419.25;;;8.97;86.70
78685;BME280;68002;52.310;6.990;2023-03-14T05:14:00;98417.50;;;9.04;86.37
78685;BME280;68002;52.310;6.990;2023-03-14T05:16:25;98417.56;;;9.10;85.49
78685;BME280;68002;52.310;6.990;2023-03-14T05:18:50;98418.59;;;9.09;85.32
78685;BME280;68002;52.310;6.990;2023-03-14T05:21:15;98403.66;;;9.15;85.11
78685;BME280;68002;52.310;6.990;2023-03-14T05:23:41;98406.09;;;9.10;85.48
78685;BME280;68002;52.310;6.990;2023-03-14T05:26:06;98408.09;;;9.08;85.60
78685;BME280;68002;52.310;6.990;2023-03-14T05:28:31;98404.66;;;9.14;85.38
78685;BME280;68002;52.310;6.990;2023-03-14T05:30:56;98396.66;;;9.14;85.08
78685;BME280;68002;52.310;6.990;2023-03-14T05:33:22;98402.44;;;9.18;84.95
78685;BME280;68002;52.310;6.990;2023-03-14T05:35:47;98395.66;;;9.15;85.17
78685;BME280;68002;52.310;6.990;2023-03-14T05:38:12;98390.78;;;9.19;84.41
78685;BME280;68002;52.310;6.990;2023-03-14T05:40:37;98390.19;;;9.23;83.81
78685;BME280;68002;52.310;6.990;2023-03-14T05:43:02;98387.53;;;9.23;84.20
78685;BME280;68002;52.310;6.990;2023-03-14T05:45:28;98386.09;;;9.21;84.48
78685;BME280;68002;52.310;6.990;2023-03-14T05:47:53;98377.88;;;9.22;83.75
78685;BME280;68002;52.310;6.990;2023-03-14T05:50:18;98400.09;;;9.29;83.00
78685;BME280;68002;52.310;6.990;2023-03-14T05:52:43;98391.66;;;9.26;82.77
78685;BME280;68002;52.310;6.990;2023-03-14T05:55:09;98379.34;;;9.25;82.70
78685;BME280;68002;52.310;6.990;2023-03-14T05:57:34;98380.31;;;9.17;82.70
78685;BME280;68002;52.310;6.990;2023-03-14T05:59:59;98380.94;;;9.19;83.23
78685;BME280;68002;52.310;6.990;2023-03-14T06:02:24;98386.09;;;9.21;83.88
78685;BME280;68002;52.310;6.990;2023-03-14T06:04:50;98391.47;;;9.27;82.89
78685;BME280;68002;52.310;6.990;2023-03-14T06:07:15;98387.81;;;9.28;82.90
78685;BME280;68002;52.310;6.990;2023-03-14T06:09:40;98388.25;;;9.32;82.56
78685;BME280;68002;52.310;6.990;2023-03-14T06:12:05;98383.16;;;9.37;82.02
78685;BME280;68002;52.310;6.990;2023-03-14T06:14:31;98387.94;;;9.41;81.53
78685;BME280;68002;52.310;6.990;2023-03-14T06:16:56;98378.25;;;9.40;81.67
78685;BME280;68002;52.310;6.990;2023-03-14T06:19:21;98380.91;;;9.40;82.44
78685;BME280;68002;52.310;6.990;2023-03-14T06:21:47;98387.53;;;9.44;81.78
78685;BME280;68002;52.310;6.990;2023-03-14T06:24:12;98393.25;;;9.41;81.64
78685;BME280;68002;52.310;6.990;2023-03-14T06:26:37;98384.88;;;9.44;81.34
78685;BME280;68002;52.310;6.990;2023-03-14T06:29:02;98394.34;;;9.47;81.48
78685;BME280;68002;52.310;6.990;2023-03-14T06:31:28;98383.84;;;9.45;81.36
78685;BME280;68002;52.310;6.990;2023-03-14T06:33:53;98400.13;;;9.50;81.81
78685;BME280;68002;52.310;6.990;2023-03-14T06:36:18;98399.47;;;9.48;81.59
78685;BME280;68002;52.310;6.990;2023-03-14T06:38:43;98398.97;;;9.59;81.47
78685;BME280;68002;52.310;6.990;2023-03-14T06:41:08;98413.00;;;9.68;81.44
78685;BME280;68002;52.310;6.990;2023-03-14T06:43:34;98408.41;;;9.62;81.24
78685;BME280;68002;52.310;6.990;2023-03-14T06:45:59;98390.97;;;9.59;81.81
78685;BME280;68002;52.310;6.990;2023-03-14T06:48:24;98401.63;;;9.59;82.01
78685;BME280;68002;52.310;6.990;2023-03-14T06:50:49;98390.97;;;9.59;82.08
78685;BME280;68002;52.310;6.990;2023-03-14T06:53:15;98403.72;;;9.64;82.08
78685;BME280;68002;52.310;6.990;2023-03-14T06:55:40;98395.91;;;9.62;81.47
78685;BME280;68002;52.310;6.990;2023-03-14T06:58:05;98416.84;;;9.65;82.25
78685;BME280;68002;52.310;6.990;2023-03-14T07:00:30;98410.50;;;9.66;81.50
78685;BME280;68002;52.310;6.990;2023-03-14T07:02:55;98389.09;;;9.60;81.59
78685;BME280;68002;52.310;6.990;2023-03-14T07:05:21;98392.59;;;9.60;81.79
78685;BME280;68002;52.310;6.990;2023-03-14T07:07:46;98399.59;;;9.61;82.59
78685;BME280;68002;52.310;6.990;2023-03-14T07:10:11;98409.25;;;9.62;82.41
78685;BME280;68002;52.310;6.990;2023-03-14T07:12:36;98414.19;;;9.65;82.13
78685;BME280;68002;52.310;6.990;2023-03-14T07:15:02;98412.16;;;9.67;82.73
78685;BME280;68002;52.310;6.990;2023-03-14T07:17:27;98418.28;;;9.61;82.61
78685;BME280;68002;52.310;6.990;2023-03-14T07:19:53;98403.28;;;9.60;83.54
78685;BME280;68002;52.310;6.990;2023-03-14T07:22:18;98415.53;;;9.55;84.44
78685;BME280;68002;52.310;6.990;2023-03-14T07:24:43;98422.97;;;9.59;83.38
78685;BME280;68002;52.310;6.990;2023-03-14T07:27:08;98420.13;;;9.61;83.96
78685;BME280;68002;52.310;6.990;2023-03-14T07:29:33;98420.03;;;9.54;85.10
78685;BME280;68002;52.310;6.990;2023-03-14T07:31:59;98421.81;;;9.47;86.16
78685;BME280;68002;52.310;6.990;2023-03-14T07:34:24;98430.06;;;9.52;85.25
78685;BME280;68002;52.310;6.990;2023-03-14T07:36:49;98425.53;;;9.46;86.18
78685;BME280;68002;52.310;6.990;2023-03-14T07:39:14;98447.75;;;9.53;85.92
78685;BME280;68002;52.310;6.990;2023-03-14T07:41:39;98426.16;;;9.48;86.18
78685;BME280;68002;52.310;6.990;2023-03-14T07:44:04;98419.25;;;9.54;86.60
78685;BME280;68002;52.310;6.990;2023-03-14T07:46:30;98436.06;;;9.54;87.21
78685;BME280;68002;52.310;6.990;2023-03-14T07:48:55;98434.66;;;9.58;86.23
78685;BME280;68002;52.310;6.990;2023-03-14T07:51:20;98438.34;;;9.57;86.35
78685;BME280;68002;52.310;6.990;2023-03-14T07:53:45;98444.69;;;9.56;87.44
78685;BME280;68002;52.310;6.990;2023-03-14T07:56:11;98430.28;;;9.51;86.79
78685;BME280;68002;52.310;6.990;2023-03-14T07:58:36;98442.41;;;9.53;87.46
78685;BME280;68002;52.310;6.990;2023-03-14T08:01:01;98435.56;;;9.44;88.00
78685;BME280;68002;52.310;6.990;2023-03-14T08:03:26;98433.78;;;9.51;87.97
78685;BME280;68002;52.310;6.990;2023-03-14T08:05:52;98445.47;;;9.50;88.40
78685;BME280;68002;52.310;6.990;2023-03-14T08:08:18;98449.53;;;9.46;88.32
78685;BME280;68002;52.310;6.990;2023-03-14T08:10:43;98460.47;;;9.51;88.25
78685;BME280;68002;52.310;6.990;2023-03-14T08:13:09;98443.81;;;9.49;88.38
78685;BME280;68002;52.310;6.990;2023-03-14T08:15:35;98455.72;;;9.47;88.76
78685;BME280;68002;52.310;6.990;2023-03-14T08:18:00;98445.47;;;9.50;89.18
78685;BME280;68002;52.310;6.990;2023-03-14T08:20:27;98460.47;;;9.51;88.87
78685;BME280;68002;52.310;6.990;2023-03-14T08:22:58;98462.28;;;9.51;88.76
78685;BME280;68002;52.310;6.990;2023-03-14T08:25:24;98463.81;;;9.60;88.90
78685;BME280;68002;52.310;6.990;2023-03-14T08:27:49;98523.19;;;9.62;88.28
78685;BME280;68002;52.310;6.990;2023-03-14T08:30:16;98548.19;;;9.25;85.71
78685;BME280;68002;52.310;6.990;2023-03-14T08:32:42;98547.25;;;8.68;86.29
78685;BME280;68002;52.310;6.990;2023-03-14T08:35:08;98559.31;;;8.41;83.95
78685;BME280;68002;52.310;6.990;2023-03-14T08:37:34;98562.16;;;8.17;84.83
78685;BME280;68002;52.310;6.990;2023-03-14T08:39:59;98570.25;;;8.09;84.92
78685;BME280;68002;52.310;6.990;2023-03-14T08:42:24;98579.03;;;8.09;84.82
78685;BME280;68002;52.310;6.990;2023-03-14T08:44:51;98576.09;;;8.04;85.45
78685;BME280;68002;52.310;6.990;2023-03-14T08:47:16;98589.75;;;8.01;85.28
78685;BME280;68002;52.310;6.990;2023-03-14T08:49:41;98592.28;;;7.95;86.71
78685;BME280;68002;52.310;6.990;2023-03-14T08:52:07;98601.59;;;7.99;86.55
78685;BME280;68002;52.310;6.990;2023-03-14T08:54:32;98609.38;;;8.00;86.51
78685;BME280;68002;52.310;6.990;2023-03-14T08:56:57;98610.59;;;7.98;86.23
78685;BME280;68002;52.310;6.990;2023-03-14T08:59:23;98611.56;;;7.97;86.62
78685;BME280;68002;52.310;6.990;2023-03-14T09:01:49;98632.75;;;7.90;86.80
78685;BME280;68002;52.310;6.990;2023-03-14T09:04:14;98666.22;;;7.85;86.57
78685;BME280;68002;52.310;6.990;2023-03-14T09:06:40;98695.22;;;7.72;85.40
78685;BME280;68002;52.310;6.990;2023-03-14T09:09:05;98697.31;;;7.46;83.88
78685;BME280;68002;52.310;6.990;2023-03-14T09:11:31;98711.03;;;7.27;84.26
78685;BME280;68002;52.310;6.990;2023-03-14T09:13:56;98714.72;;;7.09;84.05
78685;BME280;68002;52.310;6.990;2023-03-14T09:16:21;98727.03;;;6.94;84.47
78685;BME280;68002;52.310;6.990;2023-03-14T09:18:47;98731.50;;;6.78;85.46
78685;BME280;68002;52.310;6.990;2023-03-14T09:21:12;98749.63;;;6.66;85.09
78685;BME280;68002;52.310;6.990;2023-03-14T09:23:38;98758.28;;;6.68;85.51
78685;BME280;68002;52.310;6.990;2023-03-14T09:26:03;98797.59;;;6.65;87.10
78685;BME280;68002;52.310;6.990;2023-03-14T09:28:29;98800.56;;;6.54;84.63
78685;BME280;68002;52.310;6.990;2023-03-14T09:30:54;98806.00;;;6.36;82.10
78685;BME280;68002;52.310;6.990;2023-03-14T09:33:20;98833.69;;;6.26;83.86
78685;BME280;68002;52.310;6.990;2023-03-14T09:35:45;98853.25;;;6.17;83.73
78685;BME280;68002;52.310;6.990;2023-03-14T09:38:10;98844.94;;;6.12;82.58
78685;BME280;68002;52.310;6.990;2023-03-14T09:40:37;98864.31;;;6.04;82.19
78685;BME280;68002;52.310;6.990;2023-03-14T09:43:03;98866.56;;;5.91;82.07
78685;BME280;68002;52.310;6.990;2023-03-14T09:45:32;98881.13;;;5.87;82.55
78685;BME280;68002;52.310;6.990;2023-03-14T09:47:58;98897.72;;;5.89;80.91
78685;BME280;68002;52.310;6.990;2023-03-14T09:50:25;98912.97;;;5.87;82.29
78685;BME280;68002;52.310;6.990;2023-03-14T09:53:03;98932.88;;;5.91;81.01
78685;BME280;68002;52.310;6.990;2023-03-14T09:55:31;98937.34;;;5.90;81.46
78685;BME280;68002;52.310;6.990;2023-03-14T09:58:03;98952.94;;;5.93;80.26
78685;BME280;68002;52.310;6.990;2023-03-14T10:00:34;98964.41;;;5.94;79.19
78685;BME280;68002;52.310;6.990;2023-03-14T10:05:38;98984.19;;;5.82;81.24
78685;BME280;68002;52.310;6.990;2023-03-14T10:08:03;98989.38;;;5.83;80.85
78685;BME280;68002;52.310;6.990;2023-03-14T10:10:29;98994.19;;;5.88;79.99
78685;BME280;68002;52.310;6.990;2023-03-14T10:12:59;99011.13;;;5.87;79.19
78685;BME280;68002;52.310;6.990;2023-03-14T10:15:33;99013.44;;;5.90;79.43
78685;BME280;68002;52.310;6.990;2023-03-14T10:18:00;99030.13;;;6.00;80.38
78685;BME280;68002;52.310;6.990;2023-03-14T10:20:36;99034.66;;;6.07;79.91
78685;BME280;68002;52.310;6.990;2023-03-14T10:23:05;99050.19;;;6.20;78.38
78685;BME280;68002;52.310;6.990;2023-03-14T10:25:38;99067.25;;;6.18;78.87
78685;BME280;68002;52.310;6.990;2023-03-14T10:28:05;99060.81;;;6.20;77.45
78685;BME280;68002;52.310;6.990;2023-03-14T10:30:40;99083.56;;;6.23;78.15
78685;BME280;68002;52.310;6.990;2023-03-14T10:33:11;99108.63;;;6.46;77.60
78685;BME280;68002;52.310;6.990;2023-03-14T10:35:37;99094.59;;;6.61;76.70
78685;BME280;68002;52.310;6.990;2023-03-14T10:38:03;99100.31;;;6.74;75.20
78685;BME280;68002;52.310;6.990;2023-03-14T10:40:40;99105.44;;;6.93;74.23
78685;BME280;68002;52.310;6.990;2023-03-14T10:43:11;99112.72;;;7.25;75.38
78685;BME280;68002;52.310;6.990;2023-03-14T10:45:40;99124.13;;;7.67;73.47
78685;BME280;68002;52.310;6.990;2023-03-14T10:48:33;99139.59;;;7.64;70.78
78685;BME280;68002;52.310;6.990;2023-03-14T10:51:05;99140.66;;;7.79;70.96
78685;BME280;68002;52.310;6.990;2023-03-14T10:53:44;99155.47;;;7.89;72.11
78685;BME280;68002;52.310;6.990;2023-03-14T10:56:20;99174.47;;;7.94;69.75
78685;BME280;68002;52.310;6.990;2023-03-14T10:58:50;99178.44;;;7.90;68.06
78685;BME280;68002;52.310;6.990;2023-03-14T11:01:32;99178.75;;;7.87;67.14
78685;BME280;68002;52.310;6.990;2023-03-14T11:06:52;99205.94;;;8.07;70.01
78685;BME280;68002;52.310;6.990;2023-03-14T11:09:26;99220.09;;;8.15;65.92
78685;BME280;68002;52.310;6.990;2023-03-14T11:11:58;99224.22;;;7.94;66.58
78685;BME280;68002;52.310;6.990;2023-03-14T11:14:41;99231.66;;;7.82;67.01
78685;BME280;68002;52.310;6.990;2023-03-14T11:17:18;99240.31;;;7.76;69.63
78685;BME280;68002;52.310;6.990;2023-03-14T11:20:04;99253.72;;;7.67;68.49
78685;BME280;68002;52.310;6.990;2023-03-14T11:22:39;99280.91;;;7.53;69.63
78685;BME280;68002;52.310;6.990;2023-03-14T11:25:13;99277.13;;;7.30;70.87
78685;BME280;68002;52.310;6.990;2023-03-14T11:27:56;99300.03;;;7.05;73.16
78685;BME280;68002;52.310;6.990;2023-03-14T11:30:50;99308.28;;;6.94;71.58
78685;BME280;68002;52.310;6.990;2023-03-14T11:33:20;99314.56;;;6.75;73.72
78685;BME280;68002;52.310;6.990;2023-03-14T11:36:19;99313.38;;;6.70;73.82
78685;BME280;68002;52.310;6.990;2023-03-14T11:38:50;99330.22;;;6.61;74.61
78685;BME280;68002;52.310;6.990;2023-03-14T11:44:00;99342.38;;;6.81;75.73
78685;BME280;68002;52.310;6.990;2023-03-14T11:46:34;99360.97;;;6.98;75.83
78685;BME280;68002;52.310;6.990;2023-03-14T11:49:27;99377.75;;;6.99;71.23
78685;BME280;68002;52.310;6.990;2023-03-14T11:52:01;99399.16;;;6.80;71.21
78685;BME280;68002;52.310;6.990;2023-03-14T11:54:39;99384.03;;;6.63;70.84
78685;BME280;68002;52.310;6.990;2023-03-14T11:57:16;99399.16;;;6.80;73.16
78685;BME280;68002;52.310;6.990;2023-03-14T12:02:22;99408.47;;;7.54;70.17
78685;BME280;68002;52.310;6.990;2023-03-14T12:07:24;99408.75;;;7.94;63.88
78685;BME280;68002;52.310;6.990;2023-03-14T12:09:51;99430.72;;;7.96;64.57
78685;BME280;68002;52.310;6.990;2023-03-14T12:12:20;99435.94;;;8.06;64.10
78685;BME280;68002;52.310;6.990;2023-03-14T12:14:55;99428.44;;;8.27;63.05
78685;BME280;68002;52.310;6.990;2023-03-14T12:17:40;99433.66;;;8.37;61.35
78685;BME280;68002;52.310;6.990;2023-03-14T12:22:46;99456.06;;;8.26;58.75
78685;BME280;68002;52.310;6.990;2023-03-14T12:25:19;99473.59;;;8.11;60.48
78685;BME280;68002;52.310;6.990;2023-03-14T12:30:39;99493.28;;;7.92;57.72
78685;BME280;68002;52.310;6.990;2023-03-14T12:35:50;99500.03;;;8.30;58.90
78685;BME280;68002;52.310;6.990;2023-03-14T12:41:17;99511.13;;;8.85;49.80
78685;BME280;68002;52.310;6.990;2023-03-14T12:43:45;99527.81;;;8.87;49.96
78685;BME280;68002;52.310;6.990;2023-03-14T12:49:07;99560.69;;;8.36;52.13
78685;BME280;68002;52.310;6.990;2023-03-14T12:51:41;99562.00;;;8.14;52.33
78685;BME280;68002;52.310;6.990;2023-03-14T12:54:26;99558.22;;;7.99;52.31
78685;BME280;68002;52.310;6.990;2023-03-14T12:59:36;99564.47;;;7.90;48.13
78685;BME280;68002;52.310;6.990;2023-03-14T13:02:19;99577.06;;;8.06;49.28
78685;BME280;68002;52.310;6.990;2023-03-14T13:04:48;99589.41;;;8.76;50.46
78685;BME280;68002;52.310;6.990;2023-03-14T13:08:01;99588.09;;;9.63;47.00
78685;BME280;68002;52.310;6.990;2023-03-14T13:10:19;99580.84;;;10.13;43.76
78685;BME280;68002;52.310;6.990;2023-03-14T13:12:50;99595.69;;;10.40;42.18
78685;BME280;68002;52.310;6.990;2023-03-14T13:17:46;99598.22;;;10.26;43.45
78685;BME280;68002;52.310;6.990;2023-03-14T13:20:16;99621.38;;;10.01;42.03
78685;BME280;68002;52.310;6.990;2023-03-14T13:22:48;99628.78;;;10.15;40.43
78685;BME280;68002;52.310;6.990;2023-03-14T13:25:14;99633.63;;;10.52;40.54
78685;BME280;68002;52.310;6.990;2023-03-14T13:27:40;99625.94;;;10.73;36.65
78685;BME280;68002;52.310;6.990;2023-03-14T13:30:40;99639.88;;;11.15;38.06
78685;BME280;68002;52.310;6.990;2023-03-14T13:33:05;99646.50;;;11.35;37.15
78685;BME280;68002;52.310;6.990;2023-03-14T13:35:48;99662.81;;;11.48;37.45
78685;BME280;68002;52.310;6.990;2023-03-14T13:38:22;99663.72;;;11.41;38.06
78685;BME280;68002;52.310;6.990;2023-03-14T13:40:48;99661.03;;;11.79;37.48
78685;BME280;68002;52.310;6.990;2023-03-14T13:43:24;99670.50;;;11.98;36.28
78685;BME280;68002;52.310;6.990;2023-03-14T13:45:53;99677.94;;;12.10;34.41
78685;BME280;68002;52.310;6.990;2023-03-14T13:48:20;99680.19;;;12.30;37.08
78685;BME280;68002;52.310;6.990;2023-03-14T13:50:51;99679.16;;;12.31;34.13
78685;BME280;68002;52.310;6.990;2023-03-14T13:53:16;99701.91;;;12.12;34.60